sensor_id;sensor_type;location;lat;lon;timestamp;temperature;humidity
480;DHT22;226;48.606;9.096;2023-08-06T06:35:32;15.70;92.70
480;DHT22;226;48.606;9.096;2023-08-06T06:40:29;15.50;92.20
480;DHT22;226;48.606;9.096;2023-08-06T06:45:26;15.80;91.90
480;DHT22;226;48.606;9.096;2023-08-06T06:47:55;16.00;92.00
480;DHT22;226;48.606;9.096;2023-08-06T06:52:53;15.90;92.90
480;DHT22;226;48.606;9.096;2023-08-06T06:55:21;16.10;92.50
480;DHT22;226;48.606;9.096;2023-08-06T06:57:49;15.80;93.10
480;DHT22;226;48.606;9.096;2023-08-06T07:00:17;15.90;93.40
480;DHT22;226;48.606;9.096;2023-08-06T07:02:48;15.80;90.80
480;DHT22;226;48.606;9.096;2023-08-06T07:05:17;15.80;90.80
480;DHT22;226;48.606;9.096;2023-08-06T07:07:45;15.60;92.70
480;DHT22;226;48.606;9.096;2023-08-06T07:10:16;15.40;92.40
480;DHT22;226;48.606;9.096;2023-08-06T07:15:12;15.40;93.00
480;DHT22;226;48.606;9.096;2023-08-06T07:17:40;15.50;94.30
480;DHT22;226;48.606;9.096;2023-08-06T07:20:09;15.70;97.20
480;DHT22;226;48.606;9.096;2023-08-06T07:22:39;15.60;95.40
480;DHT22;226;48.606;9.096;2023-08-06T07:25:07;15.40;92.50
480;DHT22;226;48.606;9.096;2023-08-06T07:27:36;15.40;93.80
480;DHT22;226;48.606;9.096;2023-08-06T07:32:33;15.20;95.60
480;DHT22;226;48.606;9.096;2023-08-06T07:35:03;15.40;96.10
480;DHT22;226;48.606;9.096;2023-08-06T07:37:32;15.40;95.90
480;DHT22;226;48.606;9.096;2023-08-06T07:40:02;15.50;96.50
480;DHT22;226;48.606;9.096;2023-08-06T07:42:31;15.40;95.50
480;DHT22;226;48.606;9.096;2023-08-06T07:44:59;15.40;96.50
480;DHT22;226;48.606;9.096;2023-08-06T07:57:24;15.60;97.00
480;DHT22;226;48.606;9.096;2023-08-06T07:59:52;15.80;94.20
480;DHT22;226;48.606;9.096;2023-08-06T08:02:21;15.80;93.80
480;DHT22;226;48.606;9.096;2023-08-06T08:04:49;16.00;93.00
480;DHT22;226;48.606;9.096;2023-08-06T08:07:18;16.00;94.80
480;DHT22;226;48.606;9.096;2023-08-06T08:09:46;15.90;93.20
480;DHT22;226;48.606;9.096;2023-08-06T08:12:15;16.20;91.60
480;DHT22;226;48.606;9.096;2023-08-06T08:14:44;16.20;91.90
480;DHT22;226;48.606;9.096;2023-08-06T08:17:12;16.20;86.90
480;DHT22;226;48.606;9.096;2023-08-06T08:19:41;16.30;90.20
480;DHT22;226;48.606;9.096;2023-08-06T08:22:09;16.20;91.30
480;DHT22;226;48.606;9.096;2023-08-06T08:24:37;16.20;91.40
480;DHT22;226;48.606;9.096;2023-08-06T08:27:05;16.10;92.40
480;DHT22;226;48.606;9.096;2023-08-06T08:34:33;16.00;95.10
480;DHT22;226;48.606;9.096;2023-08-06T08:37:01;15.90;95.90
480;DHT22;226;48.606;9.096;2023-08-06T08:39:29;15.90;93.30
480;DHT22;226;48.606;9.096;2023-08-06T08:41:57;15.90;95.80
480;DHT22;226;48.606;9.096;2023-08-06T08:44:26;16.00;95.50
480;DHT22;226;48.606;9.096;2023-08-06T08:46:56;16.10;95.90
480;DHT22;226;48.606;9.096;2023-08-06T08:49:26;16.00;92.70
480;DHT22;226;48.606;9.096;2023-08-06T08:51:56;16.10;93.40
480;DHT22;226;48.606;9.096;2023-08-06T08:54:25;16.10;93.30
480;DHT22;226;48.606;9.096;2023-08-06T08:56:54;16.10;94.70
480;DHT22;226;48.606;9.096;2023-08-06T08:59:23;16.20;92.90
480;DHT22;226;48.606;9.096;2023-08-06T09:01:52;16.10;91.50
480;DHT22;226;48.606;9.096;2023-08-06T09:04:22;16.10;95.20
480;DHT22;226;48.606;9.096;2023-08-06T09:06:54;16.20;93.50
480;DHT22;226;48.606;9.096;2023-08-06T09:09:27;16.10;94.00
480;DHT22;226;48.606;9.096;2023-08-06T09:12:00;16.20;93.20
480;DHT22;226;48.606;9.096;2023-08-06T09:14:28;16.20;93.40
480;DHT22;226;48.606;9.096;2023-08-06T09:16:56;16.30;95.40
480;DHT22;226;48.606;9.096;2023-08-06T09:19:27;16.40;94.80
480;DHT22;226;48.606;9.096;2023-08-06T09:21:56;16.60;96.80
480;DHT22;226;48.606;9.096;2023-08-06T11:10:38;16.30;96.60
480;DHT22;226;48.606;9.096;2023-08-06T11:13:21;16.50;94.70
480;DHT22;226;48.606;9.096;2023-08-06T11:15:49;16.50;91.30
480;DHT22;226;48.606;9.096;2023-08-06T11:18:17;16.70;93.10
480;DHT22;226;48.606;9.096;2023-08-06T11:20:46;16.60;91.20
480;DHT22;226;48.606;9.096;2023-08-06T11:23:14;16.60;95.80
480;DHT22;226;48.606;9.096;2023-08-06T11:25:44;16.60;93.80
480;DHT22;226;48.606;9.096;2023-08-06T11:28:12;16.90;95.60
480;DHT22;226;48.606;9.096;2023-08-06T11:30:42;16.60;93.70
480;DHT22;226;48.606;9.096;2023-08-06T11:33:10;16.80;94.50
480;DHT22;226;48.606;9.096;2023-08-06T11:35:38;16.80;94.30
480;DHT22;226;48.606;9.096;2023-08-06T11:38:07;16.60;94.80
480;DHT22;226;48.606;9.096;2023-08-06T11:43:05;16.50;92.90
480;DHT22;226;48.606;9.096;2023-08-06T11:45:35;16.50;91.60
480;DHT22;226;48.606;9.096;2023-08-06T11:50:37;16.30;95.10
480;DHT22;226;48.606;9.096;2023-08-06T11:53:05;16.50;96.20
480;DHT22;226;48.606;9.096;2023-08-06T11:55:35;16.60;91.30
480;DHT22;226;48.606;9.096;2023-08-06T11:58:03;16.90;90.50
480;DHT22;226;48.606;9.096;2023-08-06T12:00:32;16.50;81.30
480;DHT22;226;48.606;9.096;2023-08-06T12:03:00;16.90;86.00
480;DHT22;226;48.606;9.096;2023-08-06T12:05:31;17.10;81.00
480;DHT22;226;48.606;9.096;2023-08-06T12:08:01;17.40;86.80
480;DHT22;226;48.606;9.096;2023-08-06T12:10:30;17.20;72.80
480;DHT22;226;48.606;9.096;2023-08-06T12:12:59;17.10;78.20
480;DHT22;226;48.606;9.096;2023-08-06T12:15:27;16.90;77.60
480;DHT22;226;48.606;9.096;2023-08-06T12:17:59;16.50;79.80
480;DHT22;226;48.606;9.096;2023-08-06T12:20:27;15.80;84.30
480;DHT22;226;48.606;9.096;2023-08-06T12:22:57;15.90;90.00
480;DHT22;226;48.606;9.096;2023-08-06T12:25:25;15.90;91.00
480;DHT22;226;48.606;9.096;2023-08-06T12:27:53;16.00;88.90
480;DHT22;226;48.606;9.096;2023-08-06T12:30:21;16.10;82.00
480;DHT22;226;48.606;9.096;2023-08-06T12:32:49;16.00;88.40
480;DHT22;226;48.606;9.096;2023-08-06T12:35:18;16.00;85.00
480;DHT22;226;48.606;9.096;2023-08-06T17:16:10;15.80;58.50
480;DHT22;226;48.606;9.096;2023-08-06T17:18:39;15.50;63.20
480;DHT22;226;48.606;9.096;2023-08-06T17:23:35;15.20;64.90
480;DHT22;226;48.606;9.096;2023-08-06T17:26:03;15.30;64.10
480;DHT22;226;48.606;9.096;2023-08-06T17:28:31;15.30;61.40
480;DHT22;226;48.606;9.096;2023-08-06T17:33:29;15.40;63.30
480;DHT22;226;48.606;9.096;2023-08-06T17:35:58;15.50;64.40
480;DHT22;226;48.606;9.096;2023-08-06T17:38:26;15.50;65.70
480;DHT22;226;48.606;9.096;2023-08-06T17:40:54;15.40;66.60
480;DHT22;226;48.606;9.096;2023-08-06T17:43:23;15.30;68.30
480;DHT22;226;48.606;9.096;2023-08-06T17:45:51;15.30;68.00
480;DHT22;226;48.606;9.096;2023-08-06T17:48:21;15.50;70.20
480;DHT22;226;48.606;9.096;2023-08-06T17:53:18;15.50;62.20
480;DHT22;226;48.606;9.096;2023-08-06T17:55:46;15.50;64.50
480;DHT22;226;48.606;9.096;2023-08-06T17:58:14;15.40;64.70
480;DHT22;226;48.606;9.096;2023-08-06T18:00:43;15.20;66.00
480;DHT22;226;48.606;9.096;2023-08-06T18:03:15;15.10;64.60
480;DHT22;226;48.606;9.096;2023-08-06T18:05:45;15.40;66.90
480;DHT22;226;48.606;9.096;2023-08-06T18:08:13;15.40;68.60
480;DHT22;226;48.606;9.096;2023-08-06T18:10:42;15.30;67.10
480;DHT22;226;48.606;9.096;2023-08-06T18:13:10;15.20;68.00
480;DHT22;226;48.606;9.096;2023-08-06T18:18:07;15.10;64.10
480;DHT22;226;48.606;9.096;2023-08-06T18:20:36;15.30;67.70
480;DHT22;226;48.606;9.096;2023-08-06T18:23:05;15.00;68.10
480;DHT22;226;48.606;9.096;2023-08-06T18:25:34;15.10;65.90
480;DHT22;226;48.606;9.096;2023-08-06T18:28:02;14.90;67.90
480;DHT22;226;48.606;9.096;2023-08-06T18:30:31;14.90;67.50
480;DHT22;226;48.606;9.096;2023-08-06T18:33:00;14.90;66.60
480;DHT22;226;48.606;9.096;2023-08-06T18:35:29;14.80;67.70
480;DHT22;226;48.606;9.096;2023-08-06T18:37:58;14.90;68.10
480;DHT22;226;48.606;9.096;2023-08-06T18:40:29;14.70;67.10
480;DHT22;226;48.606;9.096;2023-08-06T18:42:57;14.80;67.10
480;DHT22;226;48.606;9.096;2023-08-06T18:45:25;14.60;68.50
480;DHT22;226;48.606;9.096;2023-08-06T18:47:53;14.60;70.40
480;DHT22;226;48.606;9.096;2023-08-06T18:50:21;14.70;69.90
480;DHT22;226;48.606;9.096;2023-08-06T18:52:49;14.60;68.00
480;DHT22;226;48.606;9.096;2023-08-06T18:55:18;14.70;73.70
480;DHT22;226;48.606;9.096;2023-08-06T18:57:47;14.70;73.30
480;DHT22;226;48.606;9.096;2023-08-06T19:02:44;14.50;75.20
480;DHT22;226;48.606;9.096;2023-08-06T19:05:12;14.40;78.20
480;DHT22;226;48.606;9.096;2023-08-06T19:07:40;14.50;78.50
480;DHT22;226;48.606;9.096;2023-08-06T19:10:09;14.40;79.30
480;DHT22;226;48.606;9.096;2023-08-06T19:12:37;14.40;78.30
480;DHT22;226;48.606;9.096;2023-08-06T19:15:07;14.10;78.70
480;DHT22;226;48.606;9.096;2023-08-06T19:17:36;14.40;80.60
480;DHT22;226;48.606;9.096;2023-08-06T19:20:05;14.60;80.20
480;DHT22;226;48.606;9.096;2023-08-06T19:22:33;14.10;81.40
480;DHT22;226;48.606;9.096;2023-08-06T19:25:01;13.80;79.80
480;DHT22;226;48.606;9.096;2023-08-06T19:27:29;14.00;84.60
480;DHT22;226;48.606;9.096;2023-08-06T19:29:57;13.60;83.50
480;DHT22;226;48.606;9.096;2023-08-06T19:32:27;13.90;84.20
480;DHT22;226;48.606;9.096;2023-08-06T19:34:55;13.80;82.10
480;DHT22;226;48.606;9.096;2023-08-06T19:37:23;13.90;83.60
480;DHT22;226;48.606;9.096;2023-08-06T19:39:51;13.80;82.80
480;DHT22;226;48.606;9.096;2023-08-06T19:42:19;13.80;82.60
480;DHT22;226;48.606;9.096;2023-08-06T19:44:47;13.70;80.30
480;DHT22;226;48.606;9.096;2023-08-06T19:47:16;13.90;80.80
480;DHT22;226;48.606;9.096;2023-08-06T19:49:45;14.00;79.80
480;DHT22;226;48.606;9.096;2023-08-06T19:52:13;13.80;81.70
480;DHT22;226;48.606;9.096;2023-08-06T19:54:42;13.70;82.80
480;DHT22;226;48.606;9.096;2023-08-06T19:57:10;13.90;81.20
480;DHT22;226;48.606;9.096;2023-08-06T19:59:38;13.80;79.90
480;DHT22;226;48.606;9.096;2023-08-06T20:02:06;13.60;78.60
480;DHT22;226;48.606;9.096;2023-08-06T20:04:34;13.80;80.20
480;DHT22;226;48.606;9.096;2023-08-06T20:07:04;13.90;78.30
480;DHT22;226;48.606;9.096;2023-08-06T20:09:32;13.70;76.60
480;DHT22;226;48.606;9.096;2023-08-06T20:14:29;13.80;77.30
480;DHT22;226;48.606;9.096;2023-08-06T20:16:57;13.90;73.50
480;DHT22;226;48.606;9.096;2023-08-06T20:19:25;13.70;74.20
480;DHT22;226;48.606;9.096;2023-08-06T20:21:53;13.90;75.00
480;DHT22;226;48.606;9.096;2023-08-06T20:24:23;13.70;76.10
480;DHT22;226;48.606;9.096;2023-08-06T20:26:51;14.20;78.60
480;DHT22;226;48.606;9.096;2023-08-06T20:29:19;13.70;77.10
480;DHT22;226;48.606;9.096;2023-08-06T20:31:48;13.90;78.50
480;DHT22;226;48.606;9.096;2023-08-06T20:34:16;13.90;79.50
480;DHT22;226;48.606;9.096;2023-08-06T20:36:44;14.00;76.50
480;DHT22;226;48.606;9.096;2023-08-06T20:39:12;13.80;78.10
480;DHT22;226;48.606;9.096;2023-08-06T20:41:41;13.50;76.70
480;DHT22;226;48.606;9.096;2023-08-06T20:44:09;13.80;76.90
480;DHT22;226;48.606;9.096;2023-08-06T20:46:37;13.70;75.00
480;DHT22;226;48.606;9.096;2023-08-06T20:49:06;13.70;76.90
480;DHT22;226;48.606;9.096;2023-08-06T20:51:34;13.80;76.30
480;DHT22;226;48.606;9.096;2023-08-06T20:54:02;14.10;76.10
480;DHT22;226;48.606;9.096;2023-08-06T20:56:30;14.20;76.70
480;DHT22;226;48.606;9.096;2023-08-06T20:58:59;13.70;74.80
480;DHT22;226;48.606;9.096;2023-08-06T21:01:27;13.60;77.10
480;DHT22;226;48.606;9.096;2023-08-06T21:03:56;13.60;78.60
480;DHT22;226;48.606;9.096;2023-08-06T21:06:24;13.00;79.20
480;DHT22;226;48.606;9.096;2023-08-06T21:08:52;13.30;81.90
480;DHT22;226;48.606;9.096;2023-08-06T21:11:20;13.30;87.10
480;DHT22;226;48.606;9.096;2023-08-06T21:13:48;13.60;89.10
480;DHT22;226;48.606;9.096;2023-08-06T21:16:17;13.30;89.30
480;DHT22;226;48.606;9.096;2023-08-06T21:18:46;13.70;92.10
480;DHT22;226;48.606;9.096;2023-08-06T21:21:14;13.30;92.30
480;DHT22;226;48.606;9.096;2023-08-06T21:23:42;13.20;92.00
480;DHT22;226;48.606;9.096;2023-08-06T21:26:10;13.00;94.50
480;DHT22;226;48.606;9.096;2023-08-06T21:28:38;12.70;95.60
480;DHT22;226;48.606;9.096;2023-08-06T21:31:08;12.60;97.30
480;DHT22;226;48.606;9.096;2023-08-06T21:33:39;12.70;97.40
480;DHT22;226;48.606;9.096;2023-08-06T21:36:08;12.70;98.60
480;DHT22;226;48.606;9.096;2023-08-06T21:38:38;12.70;99.00
480;DHT22;226;48.606;9.096;2023-08-06T21:41:08;12.50;98.40
480;DHT22;226;48.606;9.096;2023-08-06T21:43:38;12.60;98.50
480;DHT22;226;48.606;9.096;2023-08-06T21:46:08;12.50;98.80
480;DHT22;226;48.606;9.096;2023-08-06T21:48:40;12.50;99.90
480;DHT22;226;48.606;9.096;2023-08-06T21:53:38;12.50;99.90
480;DHT22;226;48.606;9.096;2023-08-06T21:56:07;12.50;99.90
480;DHT22;226;48.606;9.096;2023-08-06T21:58:37;12.50;99.90
480;DHT22;226;48.606;9.096;2023-08-06T22:01:06;12.60;99.90
480;DHT22;226;48.606;9.096;2023-08-06T22:03:36;12.60;99.90
480;DHT22;226;48.606;9.096;2023-08-06T22:06:06;12.50;99.90
480;DHT22;226;48.606;9.096;2023-08-06T22:08:34;12.40;99.90
480;DHT22;226;48.606;9.096;2023-08-06T22:13:31;12.50;99.90
480;DHT22;226;48.606;9.096;2023-08-06T22:15:59;11.80;99.30
480;DHT22;226;48.606;9.096;2023-08-06T22:18:27;12.30;99.70
480;DHT22;226;48.606;9.096;2023-08-06T22:20:56;12.30;99.90
480;DHT22;226;48.606;9.096;2023-08-06T22:23:26;12.30;99.90
480;DHT22;226;48.606;9.096;2023-08-06T22:25:54;12.20;99.90
480;DHT22;226;48.606;9.096;2023-08-06T22:28:23;12.40;99.90
480;DHT22;226;48.606;9.096;2023-08-06T22:30:52;12.30;99.90
480;DHT22;226;48.606;9.096;2023-08-06T22:33:20;12.30;99.90
480;DHT22;226;48.606;9.096;2023-08-06T22:35:49;12.30;99.90
480;DHT22;226;48.606;9.096;2023-08-06T22:38:19;12.30;99.90
480;DHT22;226;48.606;9.096;2023-08-06T22:40:49;12.30;99.90
480;DHT22;226;48.606;9.096;2023-08-06T22:43:17;12.40;99.90
480;DHT22;226;48.606;9.096;2023-08-06T22:45:45;12.10;99.20
480;DHT22;226;48.606;9.096;2023-08-06T22:48:13;12.20;98.00
480;DHT22;226;48.606;9.096;2023-08-06T22:50:41;12.10;98.30
480;DHT22;226;48.606;9.096;2023-08-06T22:53:09;12.80;99.60
480;DHT22;226;48.606;9.096;2023-08-06T22:55:37;12.20;99.90
480;DHT22;226;48.606;9.096;2023-08-06T22:58:27;12.20;99.90
480;DHT22;226;48.606;9.096;2023-08-06T23:00:55;12.20;98.50
480;DHT22;226;48.606;9.096;2023-08-06T23:05:52;12.20;96.30
480;DHT22;226;48.606;9.096;2023-08-06T23:08:20;12.40;99.80
480;DHT22;226;48.606;9.096;2023-08-06T23:10:48;12.20;98.40
480;DHT22;226;48.606;9.096;2023-08-06T23:13:16;12.30;98.70
480;DHT22;226;48.606;9.096;2023-08-06T23:15:46;12.50;98.10
480;DHT22;226;48.606;9.096;2023-08-06T23:18:14;12.20;98.10
480;DHT22;226;48.606;9.096;2023-08-06T23:20:43;11.90;97.60
480;DHT22;226;48.606;9.096;2023-08-06T23:23:11;12.20;99.10
480;DHT22;226;48.606;9.096;2023-08-06T23:25:39;12.10;98.50
480;DHT22;226;48.606;9.096;2023-08-06T23:28:07;12.20;99.20
480;DHT22;226;48.606;9.096;2023-08-06T23:30:35;12.10;99.30
480;DHT22;226;48.606;9.096;2023-08-06T23:33:05;12.10;98.70
480;DHT22;226;48.606;9.096;2023-08-06T23:35:33;12.10;98.60
480;DHT22;226;48.606;9.096;2023-08-06T23:38:01;12.10;98.80
480;DHT22;226;48.606;9.096;2023-08-06T23:40:29;12.10;98.80
480;DHT22;226;48.606;9.096;2023-08-06T23:42:57;12.10;98.00
480;DHT22;226;48.606;9.096;2023-08-06T23:45:25;12.00;98.30
480;DHT22;226;48.606;9.096;2023-08-06T23:47:53;12.00;98.00
480;DHT22;226;48.606;9.096;2023-08-06T23:50:23;11.90;96.90
480;DHT22;226;48.606;9.096;2023-08-06T23:52:51;11.90;97.80
480;DHT22;226;48.606;9.096;2023-08-06T23:55:19;12.00;98.50
480;DHT22;226;48.606;9.096;2023-08-06T23:57:47;12.00;98.40
